Time;durP1;ratioP1;P1;durP2;ratioP2;P2;SDS_P1;SDS_P2;PMS_P1;PMS_P2;Temp;Humidity;BMP_temperature;BMP_pressure;BME280_temperature;BME280_humidity;BME280_pressure;Samples;Min_cycle;Max_cycle;Signal;HPM_P1;HPM_P2
2020/12/29 00:00:59;;;;;;;38.03;21.65;;;;;;;1.46;94.86;97692.28;5025731;28;20410;-54
2020/12/29 00:03:26;;;;;;;37.90;22.02;;;;;;;1.50;95.06;97691.97;5012771;28;20100;-55
2020/12/29 00:05:52;;;;;;;37.53;21.30;;;;;;;1.47;95.19;97681.78;5015186;28;20050;-55
2020/12/29 00:08:19;;;;;;;34.03;21.35;;;;;;;1.37;94.80;97683.38;5010673;28;20042;-56
2020/12/29 00:10:46;;;;;;;41.85;21.67;;;;;;;1.36;95.95;97686.91;5011561;28;20662;-56
2020/12/29 00:13:12;;;;;;;37.78;21.08;;;;;;;1.36;95.01;97699.88;5010162;28;20053;-58
2020/12/29 00:15:40;;;;;;;46.17;24.25;;;;;;;1.46;95.91;97697.47;5012141;28;20468;-56
2020/12/29 00:18:07;;;;;;;39.25;21.75;;;;;;;1.56;95.17;97698.47;5010974;28;20514;-56
2020/12/29 00:20:34;;;;;;;39.47;20.98;;;;;;;1.40;95.28;97696.13;5011857;28;20057;-52
2020/12/29 00:23:00;;;;;;;37.47;21.23;;;;;;;1.41;95.26;97686.59;5011692;28;20053;-55
2020/12/29 00:25:27;;;;;;;39.42;21.10;;;;;;;1.50;95.12;97685.97;5009667;28;20053;-55
2020/12/29 00:27:54;;;;;;;40.92;22.10;;;;;;;1.46;95.56;97679.31;5013873;28;20061;-54
2020/12/29 00:30:20;;;;;;;39.85;20.63;;;;;;;1.55;95.22;97686.47;5010539;28;20519;-54
2020/12/29 00:32:47;;;;;;;38.17;21.30;;;;;;;1.47;94.89;97674.03;5012153;28;20147;-50
2020/12/29 00:35:14;;;;;;;43.72;22.10;;;;;;;1.33;95.89;97678.50;5011053;28;20845;-57
2020/12/29 00:37:41;;;;;;;37.35;21.45;;;;;;;1.32;95.50;97675.09;5010454;28;20042;-56
2020/12/29 00:40:08;;;;;;;42.58;22.75;;;;;;;1.25;96.04;97668.66;5008924;28;20157;-54
2020/12/29 00:42:35;;;;;;;40.53;22.83;;;;;;;1.25;95.94;97659.13;5012322;28;20053;-57
2020/12/29 00:45:02;;;;;;;38.80;21.10;;;;;;;1.30;96.27;97657.97;5012500;28;20729;-57
2020/12/29 00:47:28;;;;;;;40.97;22.00;;;;;;;1.24;96.17;97649.69;5011718;28;20053;-50
2020/12/29 00:49:55;;;;;;;45.95;24.50;;;;;;;1.60;100.00;97645.47;5008999;28;20148;-57
2020/12/29 00:52:22;;;;;;;40.33;22.77;;;;;;;1.43;97.41;97658.78;5009241;28;20053;-55
2020/12/29 00:54:48;;;;;;;44.90;24.08;;;;;;;1.52;97.25;97660.75;5013123;28;20480;-54
2020/12/29 00:57:16;;;;;;;37.53;22.00;;;;;;;1.39;95.92;97665.13;5011956;28;20061;-56
2020/12/29 00:59:43;;;;;;;41.42;23.27;;;;;;;1.38;95.70;97671.22;5013443;28;20065;-56
2020/12/29 01:02:09;;;;;;;38.22;22.23;;;;;;;1.41;95.64;97661.50;5018434;28;20037;-56
2020/12/29 01:04:37;;;;;;;39.90;21.83;;;;;;;1.32;96.06;97671.66;5016474;28;20034;-55
2020/12/29 01:07:03;;;;;;;39.65;22.77;;;;;;;1.21;97.08;97674.97;5010082;28;20057;-58
2020/12/29 01:09:30;;;;;;;38.75;21.80;;;;;;;1.36;96.79;97691.25;5015593;28;20127;-56
2020/12/29 01:11:57;;;;;;;39.70;21.75;;;;;;;1.35;96.33;97693.03;5013672;28;20050;-55
2020/12/29 01:14:24;;;;;;;38.90;23.45;;;;;;;1.40;96.41;97701.31;5010122;28;20041;-57
2020/12/29 01:16:50;;;;;;;36.92;22.38;;;;;;;1.54;96.09;97712.50;4998128;28;20144;-52
2020/12/29 01:19:17;;;;;;;38.50;21.27;;;;;;;1.49;95.58;97705.88;5011166;28;20053;-52
2020/12/29 01:21:44;;;;;;;39.83;22.30;;;;;;;1.36;95.68;97715.41;5010358;28;20060;-57
2020/12/29 01:24:11;;;;;;;35.40;21.08;;;;;;;1.43;96.30;97726.19;5011143;28;20066;-55
2020/12/29 01:26:38;;;;;;;37.83;21.98;;;;;;;1.29;96.69;97714.16;5003940;28;20056;-54
2020/12/29 01:29:04;;;;;;;41.90;22.85;;;;;;;1.37;96.81;97730.03;5013522;28;20445;-60
2020/12/29 01:31:31;;;;;;;38.25;22.90;;;;;;;1.27;96.77;97727.22;5009460;28;20060;-56
2020/12/29 01:33:59;;;;;;;42.92;23.05;;;;;;;1.35;97.08;97726.72;5009296;28;20062;-57
2020/12/29 01:36:26;;;;;;;38.45;22.83;;;;;;;1.40;96.93;97716.88;5011192;28;20065;-56
2020/12/29 01:38:54;;;;;;;43.08;24.52;;;;;;;1.41;97.02;97728.88;5013306;28;20080;-55
2020/12/29 01:41:21;;;;;;;39.90;23.65;;;;;;;1.38;96.86;97728.25;5014784;28;20057;-52
2020/12/29 01:43:49;;;;;;;42.42;22.63;;;;;;;1.57;96.73;97722.66;5013752;28;20041;-57
2020/12/29 01:46:16;;;;;;;43.13;23.60;;;;;;;1.23;97.87;97727.53;5014172;28;20065;-54
2020/12/29 01:48:43;;;;;;;43.97;25.50;;;;;;;1.36;97.42;97727.53;5007224;28;20624;-54
2020/12/29 01:51:11;;;;;;;44.25;25.10;;;;;;;1.37;96.92;97730.03;5007328;28;20072;-57
2020/12/29 01:53:39;;;;;;;42.80;24.55;;;;;;;1.24;97.59;97729.19;5011035;28;20123;-56
2020/12/29 01:56:09;;;;;;;45.63;26.00;;;;;;;1.26;97.43;97728.16;5009761;28;20065;-58
2020/12/29 01:58:40;;;;;;;43.25;25.95;;;;;;;1.33;98.20;97725.16;4998871;28;20085;-54
2020/12/29 02:01:08;;;;;;;41.00;24.20;;;;;;;1.35;98.16;97725.88;4996951;28;20474;-56
2020/12/29 02:03:35;;;;;;;41.42;25.08;;;;;;;1.52;97.59;97723.78;4997405;28;20437;-55
2020/12/29 02:06:02;;;;;;;43.17;22.73;;;;;;;1.54;96.81;97717.69;5025422;28;20144;-55
2020/12/29 02:08:29;;;;;;;37.80;22.25;;;;;;;1.49;97.06;97715.41;5012459;28;20675;-55
2020/12/29 02:10:55;;;;;;;40.97;24.70;;;;;;;1.46;97.57;97720.78;5013249;28;20542;-54
2020/12/29 02:13:22;;;;;;;41.38;23.73;;;;;;;1.49;96.73;97711.06;5019518;28;20049;-58
2020/12/29 02:15:49;;;;;;;42.05;24.10;;;;;;;1.47;96.87;97707.72;5026428;28;20057;-55
2020/12/29 02:18:16;;;;;;;39.70;22.52;;;;;;;1.63;96.55;97709.28;5008887;28;21100;-57
2020/12/29 02:20:42;;;;;;;41.85;23.92;;;;;;;1.48;96.86;97703.34;5012645;28;20068;-56
2020/12/29 02:23:12;;;;;;;43.70;25.08;;;;;;;1.43;97.02;97684.72;5011396;28;20046;-54
2020/12/29 02:25:38;;;;;;;42.70;23.45;;;;;;;1.48;97.23;97678.25;5013978;28;20084;-54
2020/12/29 02:28:07;;;;;;;44.40;24.95;;;;;;;1.38;98.34;97669.47;5007628;28;20490;-53
2020/12/29 02:30:34;;;;;;;41.35;25.27;;;;;;;1.48;97.10;97660.13;5029167;23;20054;-73
2020/12/29 02:33:01;;;;;;;40.60;24.02;;;;;;;1.47;96.78;97657.63;5002160;28;20087;-73
2020/12/29 02:35:27;;;;;;;42.92;23.95;;;;;;;1.51;97.03;97672.88;5004290;28;20073;-74
2020/12/29 02:37:54;;;;;;;42.15;24.17;;;;;;;1.52;96.84;97678.88;5002041;28;20057;-73
2020/12/29 02:40:21;;;;;;;48.60;25.65;;;;;;;1.54;96.42;97684.81;5020902;28;20053;-73
2020/12/29 02:42:48;;;;;;;42.97;23.77;;;;;;;1.52;96.33;97690.06;4991133;28;20041;-73
2020/12/29 02:45:15;;;;;;;41.85;23.92;;;;;;;1.51;96.97;97697.97;5007125;28;20053;-73
2020/12/29 02:47:41;;;;;;;40.67;24.42;;;;;;;1.56;97.48;97684.69;4992254;28;20045;-74
2020/12/29 02:50:08;;;;;;;42.33;24.55;;;;;;;1.71;96.54;97692.25;5022184;28;20060;-73
2020/12/29 02:52:35;;;;;;;39.83;24.25;;;;;;;1.72;95.95;97685.28;5022664;28;20057;-74
2020/12/29 02:55:02;;;;;;;38.38;22.42;;;;;;;1.66;95.96;97691.72;5003232;28;20056;-73
2020/12/29 02:57:29;;;;;;;42.30;24.10;;;;;;;1.56;96.72;97687.28;5003569;28;20289;-74
2020/12/29 02:59:56;;;;;;;37.88;22.38;;;;;;;1.49;96.83;97695.50;5021933;28;20045;-73
2020/12/29 03:02:23;;;;;;;39.20;22.50;;;;;;;1.48;96.75;97685.22;4992131;28;20057;-72
2020/12/29 03:04:50;;;;;;;44.58;23.17;;;;;;;1.44;97.07;97674.25;4973439;28;20057;-74
2020/12/29 03:07:17;;;;;;;38.78;22.60;;;;;;;1.38;96.99;97673.81;5021498;28;20049;-73
2020/12/29 03:09:44;;;;;;;44.97;23.20;;;;;;;1.26;97.19;97675.47;4985861;28;20069;-74
2020/12/29 03:12:11;;;;;;;38.80;23.17;;;;;;;1.11;97.70;97668.75;5020275;28;20136;-72
2020/12/29 03:14:38;;;;;;;40.22;23.55;;;;;;;1.08;98.45;97677.59;5007813;28;20045;-72
2020/12/29 03:17:05;;;;;;;41.92;24.02;;;;;;;1.15;98.34;97685.75;5027131;28;20045;-73
2020/12/29 03:19:31;;;;;;;40.42;24.65;;;;;;;1.11;98.62;97658.41;5010712;28;20064;-73
2020/12/29 03:21:58;;;;;;;45.45;25.08;;;;;;;1.17;98.61;97658.84;4991170;28;20072;-73
2020/12/29 03:24:25;;;;;;;39.70;24.58;;;;;;;1.12;98.45;97660.06;4988347;28;20041;-74
2020/12/29 03:26:52;;;;;;;50.30;24.20;;;;;;;1.20;97.98;97688.88;4988276;28;20053;-75
2020/12/29 03:29:19;;;;;;;37.92;22.58;;;;;;;1.29;98.58;97688.25;5009493;28;20052;-71
2020/12/29 03:31:46;;;;;;;40.28;22.75;;;;;;;1.39;98.08;97696.22;4985950;28;20061;-73
2020/12/29 03:34:21;;;;;;;37.95;23.92;;;;;;;1.35;98.55;97710.31;5016328;28;20061;-74
2020/12/29 03:36:48;;;;;;;;;;;;;;;1.36;97.95;97715.41;5006112;28;20081;-73
2020/12/29 03:39:15;;;;;;;;;;;;;;;1.43;97.79;97708.03;5005677;28;19921;-72
2020/12/29 03:41:41;;;;;;;39.53;22.58;;;;;;;1.31;98.10;97717.50;5005171;28;20043;-73
2020/12/29 03:44:08;;;;;;;38.03;21.92;;;;;;;1.50;97.70;97715.28;4987435;28;20038;-73
2020/12/29 03:46:35;;;;;;;35.38;21.77;;;;;;;1.47;97.92;97714.66;4971377;28;20057;-74
2020/12/29 03:49:02;;;;;;;38.60;22.80;;;;;;;1.56;97.05;97710.63;4986623;28;20528;-75
2020/12/29 03:51:29;;;;;;;39.33;21.83;;;;;;;1.53;96.77;97716.84;5003161;28;20064;-74
2020/12/29 03:53:55;;;;;;;37.78;23.42;;;;;;;1.60;96.96;97728.44;5001530;28;20057;-72
2020/12/29 03:56:22;;;;;;;42.90;22.75;;;;;;;1.62;97.09;97724.00;5008996;28;20054;-72
2020/12/29 03:58:49;;;;;;;34.20;21.15;;;;;;;1.68;96.21;97720.16;5011891;28;20057;-73
2020/12/29 04:01:16;;;;;;;35.20;21.98;;;;;;;1.69;96.16;97725.22;5026995;28;20059;-72
2020/12/29 04:03:43;;;;;;;38.78;22.40;;;;;;;1.69;95.98;97719.22;5007472;28;20045;-73
2020/12/29 04:06:11;;;;;;;37.63;21.45;;;;;;;1.66;96.37;97725.44;4991612;28;20045;-75
2020/12/29 04:08:38;;;;;;;37.90;21.23;;;;;;;1.69;96.13;97727.81;4985485;28;20057;-72
2020/12/29 04:11:05;;;;;;;36.08;21.40;;;;;;;1.74;95.96;97723.13;4989560;28;20058;-74
2020/12/29 04:13:46;;;;;;;39.97;21.40;;;;;;;1.69;95.90;97730.41;4990742;28;20045;-74
2020/12/29 04:16:12;;;;;;;38.25;22.20;;;;;;;1.64;96.21;97727.31;5006890;28;20054;-72
2020/12/29 04:18:39;;;;;;;37.22;20.67;;;;;;;1.66;96.24;97732.38;5011919;28;20057;-72
2020/12/29 04:21:06;;;;;;;38.88;22.63;;;;;;;1.74;96.20;97730.09;5012604;28;20144;-73
2020/12/29 04:23:33;;;;;;;38.15;20.10;;;;;;;1.71;96.15;97741.53;4991759;28;20756;-74
2020/12/29 04:25:59;;;;;;;36.35;20.13;;;;;;;1.54;96.18;97744.44;5025954;28;20064;-73
2020/12/29 04:28:26;;;;;;;36.00;20.20;;;;;;;1.58;96.30;97735.53;5005179;28;20826;-73
2020/12/29 04:30:54;;;;;;;36.83;22.65;;;;;;;1.57;96.27;97735.59;5008091;28;20117;-73
2020/12/29 04:33:21;;;;;;;37.22;20.58;;;;;;;1.58;96.97;97738.13;5023621;28;20072;-74
2020/12/29 04:35:48;;;;;;;32.47;20.00;;;;;;;1.60;96.97;97733.63;5029478;28;20508;-73
2020/12/29 04:38:14;;;;;;;37.70;20.92;;;;;;;1.44;97.02;97728.69;5006146;28;20048;-73
2020/12/29 04:40:41;;;;;;;34.40;19.77;;;;;;;1.60;96.38;97722.44;5012241;28;20045;-72
2020/12/29 04:43:08;;;;;;;32.10;19.90;;;;;;;1.63;96.44;97717.88;5009089;28;20141;-73
2020/12/29 04:45:35;;;;;;;36.92;21.00;;;;;;;1.62;95.88;97718.81;5014659;28;20076;-73
2020/12/29 04:48:02;;;;;;;35.97;21.15;;;;;;;1.63;95.91;97709.28;5014766;28;20050;-74
2020/12/29 04:50:30;;;;;;;34.13;21.00;;;;;;;1.58;95.43;97719.97;5025021;28;20532;-73
2020/12/29 04:52:57;;;;;;;37.92;21.98;;;;;;;1.56;96.15;97723.59;5005547;28;20049;-74
2020/12/29 04:55:29;;;;;;;34.08;20.48;;;;;;;1.80;95.17;97729.66;5005716;28;20049;-72
2020/12/29 04:57:57;;;;;;;34.83;20.30;;;;;;;1.66;95.19;97724.59;5004267;28;20103;-74
2020/12/29 05:00:25;;;;;;;36.67;21.17;;;;;;;1.74;95.56;97720.53;5006191;28;20045;-72
2020/12/29 05:02:53;;;;;;;44.47;22.55;;;;;;;1.84;94.71;97723.31;5019857;28;20057;-73
2020/12/29 05:05:22;;;;;;;32.80;20.02;;;;;;;1.73;94.52;97744.81;5012326;28;20061;-74
2020/12/29 05:07:49;;;;;;;34.97;21.02;;;;;;;1.66;94.91;97742.75;4989019;28;20045;-73
2020/12/29 05:10:16;;;;;;;38.30;22.05;;;;;;;1.63;94.92;97740.38;5004387;28;20050;-73
2020/12/29 05:13:01;;;;;;;34.55;21.13;;;;;;;1.48;95.37;97744.84;5004201;28;20152;-73
2020/12/29 05:15:28;;;;;;;40.70;22.10;;;;;;;1.40;95.87;97747.97;5008093;28;20042;-72
2020/12/29 05:17:55;;;;;;;38.80;22.65;;;;;;;1.24;96.05;97736.97;5004921;28;20314;-73
2020/12/29 05:20:33;;;;;;;35.88;22.88;;;;;;;1.17;97.07;97739.16;5030098;28;20189;-72
2020/12/29 05:23:00;;;;;;;39.80;23.20;;;;;;;0.99;97.53;97742.94;5031128;28;20531;-74
2020/12/29 05:25:27;;;;;;;47.38;24.85;;;;;;;0.76;98.68;97745.28;5009918;28;20389;-73
2020/12/29 05:27:53;;;;;;;44.13;24.77;;;;;;;0.66;99.18;97753.75;5005760;28;20053;-72
2020/12/29 05:30:21;;;;;;;42.17;24.63;;;;;;;0.76;99.21;97758.22;5011123;28;20559;-73
2020/12/29 05:32:48;;;;;;;44.95;24.83;;;;;;;0.96;98.68;97775.06;5004577;28;20054;-73
2020/12/29 05:35:15;;;;;;;48.67;24.73;;;;;;;0.95;98.02;97783.78;4986700;28;20093;-73
2020/12/29 05:37:42;;;;;;;44.58;25.13;;;;;;;0.96;97.76;97802.72;5022597;28;20088;-74
2020/12/29 05:40:29;;;;;;;48.17;25.60;;;;;;;0.74;98.13;97801.53;5003375;28;20662;-72
2020/12/29 05:42:58;;;;;;;41.45;24.50;;;;;;;0.85;98.18;97800.00;5021225;28;20091;-75
2020/12/29 05:45:29;;;;;;;44.58;25.90;;;;;;;0.77;98.55;97813.47;5022113;28;21200;-73
2020/12/29 05:47:57;;;;;;;44.67;24.92;;;;;;;0.80;98.58;97804.63;4986631;28;20472;-73
2020/12/29 05:50:25;;;;;;;52.10;28.40;;;;;;;0.75;98.68;97805.75;5004637;28;20045;-73
2020/12/29 05:52:59;;;;;;;43.63;25.33;;;;;;;0.68;98.47;97812.28;5004409;28;20136;-74
2020/12/29 05:55:26;;;;;;;43.15;24.58;;;;;;;0.58;98.30;97808.59;4997592;23;20107;-61
2020/12/29 05:58:09;;;;;;;46.55;24.92;;;;;;;0.76;98.56;97814.34;5019955;28;20058;-60
2020/12/29 06:00:37;;;;;;;50.38;25.50;;;;;;;0.60;98.99;97811.09;5010381;28;20049;-57
2020/12/29 06:03:06;;;;;;;47.65;27.27;;;;;;;0.40;98.94;97817.53;5009813;28;20049;-58
2020/12/29 06:05:35;;;;;;;46.38;26.90;;;;;;;0.40;99.57;97827.88;5001727;28;20057;-59
2020/12/29 06:08:04;;;;;;;56.95;29.38;;;;;;;0.28;99.85;97819.13;5008136;28;20061;-59
2020/12/29 06:10:33;;;;;;;52.47;28.25;;;;;;;0.13;100.00;97827.81;5014946;28;20059;-58
2020/12/29 06:13:04;;;;;;;52.92;26.75;;;;;;;0.26;100.00;97833.91;5011578;28;20065;-58
2020/12/29 06:15:36;;;;;;;51.70;26.90;;;;;;;0.46;99.92;97837.84;5017028;28;20045;-59
2020/12/29 06:18:05;;;;;;;48.75;25.95;;;;;;;0.40;99.72;97826.09;5004099;28;20050;-59
2020/12/29 06:20:39;;;;;;;50.03;26.85;;;;;;;0.52;99.30;97836.63;5007898;28;20621;-59
2020/12/29 06:23:06;;;;;;;47.15;25.17;;;;;;;0.50;98.95;97832.41;4974835;28;20078;-59
2020/12/29 06:25:37;;;;;;;45.00;26.17;;;;;;;0.43;99.39;97833.69;5011850;28;20062;-60
2020/12/29 06:28:05;;;;;;;45.28;26.60;;;;;;;0.32;98.85;97836.13;5013164;28;20487;-61
2020/12/29 06:30:33;;;;;;;50.17;28.42;;;;;;;0.11;99.79;97830.50;5009567;28;20068;-57
2020/12/29 06:33:01;;;;;;;47.72;26.60;;;;;;;-0.05;100.00;97834.94;5007584;28;20276;-58
2020/12/29 06:35:28;;;;;;;53.42;27.83;;;;;;;-0.24;100.00;97830.03;5009888;28;20049;-60
2020/12/29 06:37:58;;;;;;;48.85;26.95;;;;;;;-0.40;100.00;97837.06;4991983;28;20466;-66
2020/12/29 06:40:26;;;;;;;49.97;27.40;;;;;;;-0.01;100.00;97841.59;5015547;28;20060;-60
2020/12/29 06:42:53;;;;;;;49.85;28.35;;;;;;;-0.04;100.00;97852.16;4996314;28;20041;-59
2020/12/29 06:45:20;;;;;;;55.95;29.48;;;;;;;-0.09;100.00;97854.16;5002771;28;20137;-58
2020/12/29 06:47:47;;;;;;;58.60;31.25;;;;;;;-0.21;100.00;97863.47;5011339;28;20501;-60
2020/12/29 06:50:30;;;;;;;51.58;30.60;;;;;;;-0.21;100.00;97862.66;4997469;28;20076;-60
2020/12/29 06:53:00;;;;;;;55.78;30.40;;;;;;;-0.29;100.00;97861.34;5010948;28;20085;-59
2020/12/29 06:55:34;;;;;;;56.88;29.42;;;;;;;-0.51;100.00;97866.09;5022220;28;20427;-60
2020/12/29 06:58:02;;;;;;;60.50;30.50;;;;;;;-0.61;100.00;97864.97;4971284;28;20038;-60
2020/12/29 07:00:28;;;;;;;59.20;30.92;;;;;;;-0.72;100.00;97864.75;4987320;28;20073;-57
2020/12/29 07:02:55;;;;;;;59.55;30.27;;;;;;;-0.80;100.00;97867.78;5001334;28;20538;-59
2020/12/29 07:05:27;;;;;;;59.33;30.08;;;;;;;-0.83;100.00;97876.53;5000904;28;20058;-59
2020/12/29 07:07:55;;;;;;;65.03;31.60;;;;;;;-0.84;100.00;97884.38;5002636;28;20073;-59
2020/12/29 07:10:46;;;;;;;60.33;31.73;;;;;;;-0.67;100.00;97888.59;5010548;28;20050;-60
2020/12/29 07:13:14;;;;;;;54.05;29.17;;;;;;;-0.36;100.00;97892.81;5016578;28;20536;-58
2020/12/29 07:15:49;;;;;;;66.35;31.75;;;;;;;-0.32;100.00;97902.88;5007629;28;20145;-59
2020/12/29 07:18:22;;;;;;;55.80;29.85;;;;;;;-0.34;100.00;97899.56;4998892;28;20100;-61
2020/12/29 07:20:51;;;;;;;55.53;30.92;;;;;;;-0.25;100.00;97898.19;5011292;28;20574;-59
2020/12/29 07:23:19;;;;;;;55.55;28.98;;;;;;;-0.31;100.00;97899.38;5003230;28;20339;-60
2020/12/29 07:25:48;;;;;;;59.75;31.85;;;;;;;-0.47;100.00;97902.94;4985647;28;20395;-59
2020/12/29 07:28:17;;;;;;;60.22;31.85;;;;;;;-0.21;100.00;97904.84;4996058;28;20089;-56
2020/12/29 07:30:44;;;;;;;60.80;31.77;;;;;;;0.02;100.00;97919.00;4991452;28;20559;-60
2020/12/29 07:33:10;;;;;;;55.10;31.20;;;;;;;-0.09;100.00;97918.78;5003206;28;20046;-59
2020/12/29 07:35:38;;;;;;;53.00;29.80;;;;;;;-0.23;100.00;97924.78;5006892;28;20050;-59
2020/12/29 07:38:12;;;;;;;58.13;29.00;;;;;;;-0.37;100.00;97930.75;4999916;28;20079;-58
2020/12/29 07:40:39;;;;;;;56.30;29.35;;;;;;;-0.34;100.00;97933.16;5006293;28;20053;-57
2020/12/29 07:43:07;;;;;;;62.92;30.88;;;;;;;-0.20;100.00;97934.13;5005988;28;20081;-60
2020/12/29 07:45:34;;;;;;;63.92;32.92;;;;;;;-0.06;100.00;97934.13;4993206;28;20529;-59
2020/12/29 07:48:02;;;;;;;59.47;28.65;;;;;;;0.04;100.00;97930.06;4999653;28;20518;-60
2020/12/29 07:50:29;;;;;;;53.03;29.13;;;;;;;0.02;100.00;97936.28;5008450;28;20066;-60
2020/12/29 07:53:03;;;;;;;51.55;28.65;;;;;;;0.03;100.00;97940.53;5003478;28;20853;-62
2020/12/29 07:55:31;;;;;;;53.00;29.08;;;;;;;0.07;100.00;97955.78;5010473;28;20378;-60
2020/12/29 07:58:04;;;;;;;52.60;28.20;;;;;;;0.15;100.00;97955.31;4998012;28;20050;-58
2020/12/29 08:00:32;;;;;;;52.28;28.00;;;;;;;0.20;100.00;97959.31;5003583;28;20057;-58
2020/12/29 08:02:59;;;;;;;49.45;27.63;;;;;;;0.19;100.00;97962.00;4986779;28;20078;-57
2020/12/29 08:05:28;;;;;;;46.70;27.10;;;;;;;0.35;99.70;97974.81;5008971;28;20685;-56
2020/12/29 08:08:00;;;;;;;49.17;26.98;;;;;;;0.35;98.97;97977.41;4991276;28;20146;-55
2020/12/29 08:10:28;;;;;;;47.08;26.50;;;;;;;0.39;98.62;97971.13;5007506;28;20045;-56
2020/12/29 08:13:00;;;;;;;49.72;26.17;;;;;;;0.47;98.58;97971.50;4997139;28;20056;-63
2020/12/29 08:15:35;;;;;;;50.67;28.95;;;;;;;0.61;97.37;97957.72;4996586;28;20140;-58
2020/12/29 08:18:03;;;;;;;51.70;29.20;;;;;;;1.17;95.65;97966.31;4996109;28;20053;-57
2020/12/29 08:20:30;;;;;;;37.50;23.88;;;;;;;1.26;93.48;97976.97;4982002;28;20060;-58
2020/12/29 08:23:04;;;;;;;41.30;24.30;;;;;;;1.47;92.94;97966.97;4995718;28;20070;-61
2020/12/29 08:25:32;;;;;;;37.03;22.05;;;;;;;1.50;91.90;97974.53;4988109;28;20050;-60
2020/12/29 08:28:00;;;;;;;40.65;22.80;;;;;;;1.83;90.39;97967.25;4979819;28;20064;-58
2020/12/29 08:30:28;;;;;;;38.17;21.48;;;;;;;1.91;89.80;97983.16;5013738;23;20600;-55
2020/12/29 08:32:56;;;;;;;40.13;23.30;;;;;;;1.92;89.62;97985.63;5003316;28;20070;-56
2020/12/29 08:35:23;;;;;;;34.22;22.27;;;;;;;2.07;89.17;98001.13;5007818;28;20053;-57
2020/12/29 08:38:04;;;;;;;39.65;21.88;;;;;;;1.82;89.68;98009.69;4985933;28;20076;-53
2020/12/29 08:40:33;;;;;;;32.15;18.95;;;;;;;1.72;90.03;98015.50;4997733;28;20062;-56
2020/12/29 08:43:01;;;;;;;32.75;19.77;;;;;;;1.75;89.93;98020.47;4981436;28;20499;-52
2020/12/29 08:45:29;;;;;;;36.55;22.38;;;;;;;2.05;89.21;98024.59;4983375;28;20069;-54
2020/12/29 08:47:56;;;;;;;32.00;18.85;;;;;;;2.26;87.85;98028.38;4967127;28;20050;-53
2020/12/29 08:50:28;;;;;;;30.40;18.58;;;;;;;2.31;87.21;98032.44;4984603;28;20533;-56
2020/12/29 08:53:07;;;;;;;33.38;17.83;;;;;;;2.61;85.89;98035.56;4985031;28;20059;-53
2020/12/29 08:55:36;;;;;;;28.75;16.55;;;;;;;2.83;85.34;98036.69;4981896;28;20062;-54
2020/12/29 08:58:03;;;;;;;27.88;17.42;;;;;;;3.36;82.74;98042.50;4983651;28;20312;-54
2020/12/29 09:00:31;;;;;;;27.05;16.77;;;;;;;3.91;79.64;98046.34;4990790;28;20137;-53
2020/12/29 09:02:58;;;;;;;32.40;16.27;;;;;;;4.24;78.49;98043.88;4985219;28;20093;-54
2020/12/29 09:05:27;;;;;;;29.88;17.25;;;;;;;3.63;80.61;98061.34;4978134;28;20440;-55
2020/12/29 09:07:55;;;;;;;28.08;16.95;;;;;;;2.66;84.21;98071.63;4982597;28;20062;-57
2020/12/29 09:10:22;;;;;;;28.13;17.52;;;;;;;2.36;85.84;98074.50;4984049;28;20141;-56
2020/12/29 09:12:49;;;;;;;28.90;18.67;;;;;;;2.16;86.91;98084.44;4965210;28;20582;-57
2020/12/29 09:15:24;;;;;;;30.13;18.80;;;;;;;2.15;87.42;98087.94;4977899;28;20065;-56
2020/12/29 09:17:58;;;;;;;31.40;19.63;;;;;;;2.06;87.51;98087.69;4989715;28;20574;-54
2020/12/29 09:20:28;;;;;;;34.33;20.02;;;;;;;2.05;87.84;98093.81;4999956;28;20083;-55
2020/12/29 09:23:15;;;;;;;35.33;18.45;;;;;;;2.12;87.98;98095.09;5001184;28;20069;-55
2020/12/29 09:25:43;;;;;;;32.30;19.35;;;;;;;2.15;87.98;98097.47;4998043;28;20050;-54
2020/12/29 09:28:24;;;;;;;33.75;19.75;;;;;;;2.20;87.79;98098.00;5005095;28;20085;-52
2020/12/29 09:31:00;;;;;;;35.17;20.38;;;;;;;2.20;87.98;98100.59;5004192;28;20529;-55
2020/12/29 09:33:28;;;;;;;31.77;17.85;;;;;;;2.18;87.54;98102.47;5002696;28;20148;-57
2020/12/29 09:35:58;;;;;;;34.15;19.40;;;;;;;2.26;87.56;98106.25;4997110;28;20056;-56
2020/12/29 09:38:25;;;;;;;30.75;17.77;;;;;;;2.24;87.16;98109.84;5001852;28;20053;-53
2020/12/29 09:41:01;;;;;;;30.13;18.50;;;;;;;2.33;86.87;98117.03;5001173;28;20054;-56
2020/12/29 09:43:28;;;;;;;26.65;17.20;;;;;;;2.28;87.35;98113.94;5002762;28;20066;-56
2020/12/29 09:45:57;;;;;;;28.77;17.50;;;;;;;2.41;86.48;98112.19;5002566;28;20046;-56
2020/12/29 09:48:26;;;;;;;26.88;16.45;;;;;;;2.44;86.55;98111.16;5003536;28;20495;-55
2020/12/29 09:50:53;;;;;;;28.88;16.95;;;;;;;2.35;86.36;98112.59;4999870;28;20533;-58
2020/12/29 09:53:19;;;;;;;27.88;16.33;;;;;;;2.40;87.11;98107.09;4996887;28;20053;-53
2020/12/29 09:55:46;;;;;;;28.30;18.05;;;;;;;2.43;86.69;98107.75;4999027;28;20100;-51
2020/12/29 09:58:13;;;;;;;27.90;17.30;;;;;;;2.47;86.34;98113.53;4997158;28;20129;-54
2020/12/29 10:00:39;;;;;;;25.75;15.68;;;;;;;2.54;86.87;98110.44;4997239;28;20043;-56
2020/12/29 10:03:06;;;;;;;25.98;16.33;;;;;;;2.46;87.18;98115.31;4994630;28;20096;-53
2020/12/29 10:05:33;;;;;;;25.98;15.38;;;;;;;2.35;87.39;98109.19;5005554;28;20076;-57
2020/12/29 10:08:00;;;;;;;27.50;15.75;;;;;;;2.56;86.62;98109.50;4988199;28;20066;-59
2020/12/29 10:10:27;;;;;;;22.60;14.95;;;;;;;2.60;86.01;98106.59;4987393;28;20046;-58
2020/12/29 10:12:53;;;;;;;27.48;16.40;;;;;;;2.70;85.41;98114.59;4985364;28;20058;-58
2020/12/29 10:15:20;;;;;;;24.85;14.55;;;;;;;2.70;85.25;98109.41;5003109;28;20045;-55
2020/12/29 10:17:47;;;;;;;27.65;15.68;;;;;;;2.73;84.75;98106.63;4999329;28;20541;-58
2020/12/29 10:20:14;;;;;;;22.40;15.20;;;;;;;2.84;85.79;98113.69;5002621;28;20042;-56
2020/12/29 10:22:40;;;;;;;27.83;15.93;;;;;;;2.90;85.73;98118.47;5006668;28;20639;-53
2020/12/29 10:25:10;;;;;;;26.85;15.65;;;;;;;2.87;85.31;98116.09;5011862;28;20042;-53
2020/12/29 10:27:37;;;;;;;22.65;13.57;;;;;;;3.09;83.94;98129.28;5000608;28;20053;-56
2020/12/29 10:30:04;;;;;;;23.25;14.48;;;;;;;3.05;83.83;98131.25;5004723;28;20042;-59
2020/12/29 10:32:31;;;;;;;22.00;13.52;;;;;;;2.97;84.20;98132.72;4988301;28;20709;-53
2020/12/29 10:34:58;;;;;;;24.15;14.85;;;;;;;2.89;84.34;98135.00;4998180;28;20491;-55
2020/12/29 10:37:24;;;;;;;23.15;14.27;;;;;;;2.81;84.94;98152.88;5001065;28;20041;-53
2020/12/29 10:39:51;;;;;;;24.88;14.27;;;;;;;2.65;84.98;98156.47;4989446;28;20523;-55
2020/12/29 10:42:18;;;;;;;23.92;13.93;;;;;;;2.64;85.46;98159.19;5004540;28;20054;-51
2020/12/29 10:44:44;;;;;;;22.73;13.80;;;;;;;2.59;85.45;98159.50;4996327;28;20058;-56
2020/12/29 10:47:11;;;;;;;22.70;13.77;;;;;;;2.73;85.56;98171.56;4988750;28;20081;-58
2020/12/29 10:49:38;;;;;;;24.15;13.32;;;;;;;2.93;85.38;98168.50;5000628;28;20054;-55
2020/12/29 10:52:05;;;;;;;23.00;14.00;;;;;;;2.95;84.79;98166.59;5004396;28;20058;-59
2020/12/29 10:54:32;;;;;;;20.77;12.98;;;;;;;2.98;84.34;98161.22;5000484;28;20069;-56
2020/12/29 10:56:58;;;;;;;21.48;13.25;;;;;;;3.05;84.69;98167.63;4999797;28;20050;-56
2020/12/29 10:59:25;;;;;;;23.65;13.25;;;;;;;3.19;84.17;98161.50;4997780;28;20064;-54
2020/12/29 11:01:55;;;;;;;18.30;12.35;;;;;;;3.27;84.04;98166.19;5002578;28;20089;-54
2020/12/29 11:04:25;;;;;;;20.02;12.77;;;;;;;3.37;83.31;98171.59;4995836;28;20128;-56
2020/12/29 11:06:52;;;;;;;20.65;12.43;;;;;;;3.33;83.05;98177.94;4997445;28;20076;-54
2020/12/29 11:09:18;;;;;;;18.55;11.98;;;;;;;3.30;83.09;98176.41;4993960;28;20058;-53
2020/12/29 11:11:47;;;;;;;20.15;11.90;;;;;;;3.42;83.04;98167.75;4994608;28;20487;-53
2020/12/29 11:14:14;;;;;;;20.33;11.77;;;;;;;3.54;82.22;98169.50;4998560;28;20074;-54
2020/12/29 11:16:40;;;;;;;18.92;11.32;;;;;;;3.54;82.37;98176.47;4992864;28;20035;-55
2020/12/29 11:19:07;;;;;;;23.30;11.85;;;;;;;3.43;82.98;98174.63;4997921;28;20050;-56
2020/12/29 11:21:34;;;;;;;17.27;11.80;;;;;;;3.53;81.85;98180.84;5001496;28;20064;-53
2020/12/29 11:24:01;;;;;;;18.58;11.35;;;;;;;3.46;82.14;98176.16;5000567;28;20042;-53
2020/12/29 11:26:28;;;;;;;18.40;10.35;;;;;;;3.64;81.71;98174.88;5000614;28;20060;-56
2020/12/29 11:28:54;;;;;;;19.52;9.93;;;;;;;3.57;81.24;98180.63;4983375;28;20054;-58